sensor_id;sensor_type;location;lat;lon;timestamp;temperature;humidity
51793;DHT22;37850;53.178;6.376;2023-03-02T00:01:03;2.00;99.90
51793;DHT22;37850;53.178;6.376;2023-03-02T00:03:31;2.70;99.90
51793;DHT22;37850;53.178;6.376;2023-03-02T00:05:58;3.10;99.90
51793;DHT22;37850;53.178;6.376;2023-03-02T00:08:24;2.70;99.90
51793;DHT22;37850;53.178;6.376;2023-03-02T00:10:51;2.70;99.90
51793;DHT22;37850;53.178;6.376;2023-03-02T00:13:19;2.60;99.90
51793;DHT22;37850;53.178;6.376;2023-03-02T00:15:45;2.60;99.90
51793;DHT22;37850;53.178;6.376;2023-03-02T00:18:10;2.60;99.90
51793;DHT22;37850;53.178;6.376;2023-03-02T00:20:36;2.60;99.90
51793;DHT22;37850;53.178;6.376;2023-03-02T00:23:03;2.60;99.90
51793;DHT22;37850;53.178;6.376;2023-03-02T00:25:28;2.50;99.90
51793;DHT22;37850;53.178;6.376;2023-03-02T00:27:54;2.60;99.90
51793;DHT22;37850;53.178;6.376;2023-03-02T00:30:20;3.20;99.90
51793;DHT22;37850;53.178;6.376;2023-03-02T00:32:46;2.50;99.90
51793;DHT22;37850;53.178;6.376;2023-03-02T00:35:13;2.50;99.90
51793;DHT22;37850;53.178;6.376;2023-03-02T00:37:38;2.50;99.90
51793;DHT22;37850;53.178;6.376;2023-03-02T00:40:06;2.50;99.90
51793;DHT22;37850;53.178;6.376;2023-03-02T00:42:34;2.50;99.90
51793;DHT22;37850;53.178;6.376;2023-03-02T00:45:01;3.30;99.90
51793;DHT22;37850;53.178;6.376;2023-03-02T00:47:32;2.50;99.90
51793;DHT22;37850;53.178;6.376;2023-03-02T00:50:00;2.50;99.90
51793;DHT22;37850;53.178;6.376;2023-03-02T00:52:30;2.50;99.90
51793;DHT22;37850;53.178;6.376;2023-03-02T00:54:57;2.50;99.90
51793;DHT22;37850;53.178;6.376;2023-03-02T00:57:23;3.10;99.90
51793;DHT22;37850;53.178;6.376;2023-03-02T00:59:49;2.40;99.90
51793;DHT22;37850;53.178;6.376;2023-03-02T01:02:15;2.60;99.90
51793;DHT22;37850;53.178;6.376;2023-03-02T01:04:42;2.40;99.90
51793;DHT22;37850;53.178;6.376;2023-03-02T01:07:14;2.50;99.90
51793;DHT22;37850;53.178;6.376;2023-03-02T01:09:42;2.40;99.90
51793;DHT22;37850;53.178;6.376;2023-03-02T01:12:08;2.30;99.90
51793;DHT22;37850;53.178;6.376;2023-03-02T01:14:40;3.00;99.90
51793;DHT22;37850;53.178;6.376;2023-03-02T01:17:08;2.30;99.90
51793;DHT22;37850;53.178;6.376;2023-03-02T01:19:35;3.10;99.90
51793;DHT22;37850;53.178;6.376;2023-03-02T01:22:01;2.30;99.90
51793;DHT22;37850;53.178;6.376;2023-03-02T01:24:28;2.30;99.90
51793;DHT22;37850;53.178;6.376;2023-03-02T01:26:54;2.30;99.90
51793;DHT22;37850;53.178;6.376;2023-03-02T01:29:20;2.30;99.90
51793;DHT22;37850;53.178;6.376;2023-03-02T01:31:46;2.30;99.90
51793;DHT22;37850;53.178;6.376;2023-03-02T01:34:12;2.30;99.90
51793;DHT22;37850;53.178;6.376;2023-03-02T01:36:37;2.30;99.90
51793;DHT22;37850;53.178;6.376;2023-03-02T01:39:03;2.30;99.90
51793;DHT22;37850;53.178;6.376;2023-03-02T01:41:30;2.30;99.90
51793;DHT22;37850;53.178;6.376;2023-03-02T01:43:56;2.30;99.90
51793;DHT22;37850;53.178;6.376;2023-03-02T01:46:26;2.20;99.90
51793;DHT22;37850;53.178;6.376;2023-03-02T01:49:00;2.20;99.90
51793;DHT22;37850;53.178;6.376;2023-03-02T01:51:27;2.20;99.90
51793;DHT22;37850;53.178;6.376;2023-03-02T01:54:01;2.40;99.90
51793;DHT22;37850;53.178;6.376;2023-03-02T01:56:30;2.20;99.90
51793;DHT22;37850;53.178;6.376;2023-03-02T01:59:12;2.20;99.90
51793;DHT22;37850;53.178;6.376;2023-03-02T02:01:40;2.10;99.90
51793;DHT22;37850;53.178;6.376;2023-03-02T02:04:07;2.50;99.90
51793;DHT22;37850;53.178;6.376;2023-03-02T02:06:59;2.10;99.90
51793;DHT22;37850;53.178;6.376;2023-03-02T02:09:27;2.10;99.90
51793;DHT22;37850;53.178;6.376;2023-03-02T02:11:54;2.00;99.90
51793;DHT22;37850;53.178;6.376;2023-03-02T02:14:21;2.10;99.90
51793;DHT22;37850;53.178;6.376;2023-03-02T02:16:47;1.90;99.90
51793;DHT22;37850;53.178;6.376;2023-03-02T02:22:05;1.90;99.90
51793;DHT22;37850;53.178;6.376;2023-03-02T02:27:02;1.90;99.90
51793;DHT22;37850;53.178;6.376;2023-03-02T02:29:31;1.80;99.90
51793;DHT22;37850;53.178;6.376;2023-03-02T02:32:18;2.20;99.90
51793;DHT22;37850;53.178;6.376;2023-03-02T02:34:52;1.80;99.90
51793;DHT22;37850;53.178;6.376;2023-03-02T02:37:21;1.80;99.90
51793;DHT22;37850;53.178;6.376;2023-03-02T02:39:49;1.80;99.90
51793;DHT22;37850;53.178;6.376;2023-03-02T02:42:26;2.40;99.90
51793;DHT22;37850;53.178;6.376;2023-03-02T02:44:56;1.80;99.90
51793;DHT22;37850;53.178;6.376;2023-03-02T02:47:22;2.70;99.90
51793;DHT22;37850;53.178;6.376;2023-03-02T02:49:51;1.80;99.90
51793;DHT22;37850;53.178;6.376;2023-03-02T02:52:20;1.80;99.90
51793;DHT22;37850;53.178;6.376;2023-03-02T02:54:50;1.80;99.90
51793;DHT22;37850;53.178;6.376;2023-03-02T02:57:17;1.90;99.90
51793;DHT22;37850;53.178;6.376;2023-03-02T02:59:47;1.80;99.90
51793;DHT22;37850;53.178;6.376;2023-03-02T03:02:24;1.80;99.90
51793;DHT22;37850;53.178;6.376;2023-03-02T03:04:50;1.90;99.90
51793;DHT22;37850;53.178;6.376;2023-03-02T03:07:23;1.90;99.90
51793;DHT22;37850;53.178;6.376;2023-03-02T03:10:28;1.90;99.90
51793;DHT22;37850;53.178;6.376;2023-03-02T03:13:00;1.90;99.90
51793;DHT22;37850;53.178;6.376;2023-03-02T03:15:26;1.90;99.90
51793;DHT22;37850;53.178;6.376;2023-03-02T03:17:56;1.90;99.90
51793;DHT22;37850;53.178;6.376;2023-03-02T03:20:23;1.90;99.90
51793;DHT22;37850;53.178;6.376;2023-03-02T03:22:49;1.90;99.90
51793;DHT22;37850;53.178;6.376;2023-03-02T03:25:18;1.90;99.90
51793;DHT22;37850;53.178;6.376;2023-03-02T03:27:44;1.90;99.90
51793;DHT22;37850;53.178;6.376;2023-03-02T03:30:12;1.90;99.90
51793;DHT22;37850;53.178;6.376;2023-03-02T03:32:39;1.90;99.90
51793;DHT22;37850;53.178;6.376;2023-03-02T03:35:06;1.90;99.90
51793;DHT22;37850;53.178;6.376;2023-03-02T03:37:36;1.90;99.90
51793;DHT22;37850;53.178;6.376;2023-03-02T03:40:02;1.90;99.90
51793;DHT22;37850;53.178;6.376;2023-03-02T03:42:30;1.80;99.90
51793;DHT22;37850;53.178;6.376;2023-03-02T03:44:56;1.90;99.90
51793;DHT22;37850;53.178;6.376;2023-03-02T03:47:22;1.80;99.90
51793;DHT22;37850;53.178;6.376;2023-03-02T03:49:48;1.80;99.90
51793;DHT22;37850;53.178;6.376;2023-03-02T03:52:14;1.70;99.90
51793;DHT22;37850;53.178;6.376;2023-03-02T03:54:39;1.80;99.90
51793;DHT22;37850;53.178;6.376;2023-03-02T03:57:05;1.70;99.90
51793;DHT22;37850;53.178;6.376;2023-03-02T03:59:31;1.60;99.90
51793;DHT22;37850;53.178;6.376;2023-03-02T04:02:00;1.60;99.90
51793;DHT22;37850;53.178;6.376;2023-03-02T04:04:30;1.60;99.90
51793;DHT22;37850;53.178;6.376;2023-03-02T04:06:57;1.70;99.90
51793;DHT22;37850;53.178;6.376;2023-03-02T04:09:23;1.60;99.90
51793;DHT22;37850;53.178;6.376;2023-03-02T04:11:51;1.60;99.90
51793;DHT22;37850;53.178;6.376;2023-03-02T04:14:18;1.60;99.90
51793;DHT22;37850;53.178;6.376;2023-03-02T04:16:45;1.70;99.90
51793;DHT22;37850;53.178;6.376;2023-03-02T04:19:11;1.50;99.90
51793;DHT22;37850;53.178;6.376;2023-03-02T04:21:39;1.50;99.90
51793;DHT22;37850;53.178;6.376;2023-03-02T04:24:06;1.50;99.90
51793;DHT22;37850;53.178;6.376;2023-03-02T04:26:32;1.50;99.90
51793;DHT22;37850;53.178;6.376;2023-03-02T04:28:58;1.50;99.90
51793;DHT22;37850;53.178;6.376;2023-03-02T04:31:24;1.50;99.90
51793;DHT22;37850;53.178;6.376;2023-03-02T04:33:50;1.60;99.90
51793;DHT22;37850;53.178;6.376;2023-03-02T04:36:16;1.50;99.90
51793;DHT22;37850;53.178;6.376;2023-03-02T04:38:41;1.50;99.90
51793;DHT22;37850;53.178;6.376;2023-03-02T04:41:07;1.50;99.90
51793;DHT22;37850;53.178;6.376;2023-03-02T04:43:33;1.50;99.90
51793;DHT22;37850;53.178;6.376;2023-03-02T04:45:59;1.50;99.90
51793;DHT22;37850;53.178;6.376;2023-03-02T04:48:24;1.50;99.90
51793;DHT22;37850;53.178;6.376;2023-03-02T04:50:50;1.80;99.90
51793;DHT22;37850;53.178;6.376;2023-03-02T04:53:16;1.60;99.90
51793;DHT22;37850;53.178;6.376;2023-03-02T04:55:42;1.50;99.90
51793;DHT22;37850;53.178;6.376;2023-03-02T04:58:08;1.50;99.90
51793;DHT22;37850;53.178;6.376;2023-03-02T05:00:34;1.50;99.90
51793;DHT22;37850;53.178;6.376;2023-03-02T05:03:01;2.20;99.90
51793;DHT22;37850;53.178;6.376;2023-03-02T05:05:30;1.50;99.90
51793;DHT22;37850;53.178;6.376;2023-03-02T05:07:56;1.50;99.90
51793;DHT22;37850;53.178;6.376;2023-03-02T05:10:27;1.50;99.90
51793;DHT22;37850;53.178;6.376;2023-03-02T05:12:53;1.40;99.90
51793;DHT22;37850;53.178;6.376;2023-03-02T05:15:45;1.40;99.90
51793;DHT22;37850;53.178;6.376;2023-03-02T05:18:12;1.30;99.90
51793;DHT22;37850;53.178;6.376;2023-03-02T05:20:39;1.40;99.90
51793;DHT22;37850;53.178;6.376;2023-03-02T05:23:07;1.30;99.90
51793;DHT22;37850;53.178;6.376;2023-03-02T05:25:35;1.60;99.90
51793;DHT22;37850;53.178;6.376;2023-03-02T05:28:03;1.30;99.90
51793;DHT22;37850;53.178;6.376;2023-03-02T05:30:30;1.30;99.90
51793;DHT22;37850;53.178;6.376;2023-03-02T05:32:57;1.70;99.90
51793;DHT22;37850;53.178;6.376;2023-03-02T05:35:23;1.20;99.90
51793;DHT22;37850;53.178;6.376;2023-03-02T05:37:49;1.20;99.90
51793;DHT22;37850;53.178;6.376;2023-03-02T05:40:17;2.00;99.90
51793;DHT22;37850;53.178;6.376;2023-03-02T05:42:44;1.20;99.90
51793;DHT22;37850;53.178;6.376;2023-03-02T05:45:22;1.60;99.90
51793;DHT22;37850;53.178;6.376;2023-03-02T05:47:48;1.20;99.90
51793;DHT22;37850;53.178;6.376;2023-03-02T05:50:14;1.30;99.90
51793;DHT22;37850;53.178;6.376;2023-03-02T05:52:40;1.20;99.90
51793;DHT22;37850;53.178;6.376;2023-03-02T05:55:06;1.20;99.90
51793;DHT22;37850;53.178;6.376;2023-03-02T05:57:32;1.20;99.90
51793;DHT22;37850;53.178;6.376;2023-03-02T05:59:59;1.40;99.90
51793;DHT22;37850;53.178;6.376;2023-03-02T06:02:24;1.20;99.90
51793;DHT22;37850;53.178;6.376;2023-03-02T06:04:50;1.10;99.90
51793;DHT22;37850;53.178;6.376;2023-03-02T06:07:16;2.10;99.90
51793;DHT22;37850;53.178;6.376;2023-03-02T06:09:41;1.90;99.90
51793;DHT22;37850;53.178;6.376;2023-03-02T06:12:07;1.10;99.90
51793;DHT22;37850;53.178;6.376;2023-03-02T06:14:34;1.00;99.90
51793;DHT22;37850;53.178;6.376;2023-03-02T06:17:00;1.00;99.90
51793;DHT22;37850;53.178;6.376;2023-03-02T06:19:26;0.90;99.90
51793;DHT22;37850;53.178;6.376;2023-03-02T06:21:52;1.90;99.90
51793;DHT22;37850;53.178;6.376;2023-03-02T06:24:18;0.90;99.90
51793;DHT22;37850;53.178;6.376;2023-03-02T06:26:44;1.70;99.90
51793;DHT22;37850;53.178;6.376;2023-03-02T06:29:09;0.90;99.90
51793;DHT22;37850;53.178;6.376;2023-03-02T06:31:35;1.80;99.90
51793;DHT22;37850;53.178;6.376;2023-03-02T06:34:02;0.90;99.90
51793;DHT22;37850;53.178;6.376;2023-03-02T06:36:27;0.90;99.90
51793;DHT22;37850;53.178;6.376;2023-03-02T06:38:53;2.00;99.90
51793;DHT22;37850;53.178;6.376;2023-03-02T06:41:19;2.00;99.90
51793;DHT22;37850;53.178;6.376;2023-03-02T06:43:45;0.90;99.90
51793;DHT22;37850;53.178;6.376;2023-03-02T06:46:11;0.90;99.90
51793;DHT22;37850;53.178;6.376;2023-03-02T06:48:37;1.00;99.90
51793;DHT22;37850;53.178;6.376;2023-03-02T06:51:03;1.40;99.90
51793;DHT22;37850;53.178;6.376;2023-03-02T06:53:29;1.00;99.90
51793;DHT22;37850;53.178;6.376;2023-03-02T06:55:55;1.40;99.90
51793;DHT22;37850;53.178;6.376;2023-03-02T06:58:20;1.00;99.90
51793;DHT22;37850;53.178;6.376;2023-03-02T07:00:46;1.00;99.90
51793;DHT22;37850;53.178;6.376;2023-03-02T07:03:12;1.00;99.90
51793;DHT22;37850;53.178;6.376;2023-03-02T07:05:38;1.10;99.90
51793;DHT22;37850;53.178;6.376;2023-03-02T07:08:03;1.20;99.90
51793;DHT22;37850;53.178;6.376;2023-03-02T07:10:29;1.10;99.90
51793;DHT22;37850;53.178;6.376;2023-03-02T07:12:55;1.10;99.90
51793;DHT22;37850;53.178;6.376;2023-03-02T07:15:21;1.10;99.90
51793;DHT22;37850;53.178;6.376;2023-03-02T07:17:47;1.50;99.90
51793;DHT22;37850;53.178;6.376;2023-03-02T07:20:15;1.20;99.90
51793;DHT22;37850;53.178;6.376;2023-03-02T07:22:42;1.80;99.90
51793;DHT22;37850;53.178;6.376;2023-03-02T07:25:09;1.40;99.90
51793;DHT22;37850;53.178;6.376;2023-03-02T07:27:35;1.10;99.90
51793;DHT22;37850;53.178;6.376;2023-03-02T07:30:05;1.10;99.90
51793;DHT22;37850;53.178;6.376;2023-03-02T07:32:34;1.10;99.90
51793;DHT22;37850;53.178;6.376;2023-03-02T07:35:00;1.10;99.90
51793;DHT22;37850;53.178;6.376;2023-03-02T07:37:25;1.10;99.90
51793;DHT22;37850;53.178;6.376;2023-03-02T07:39:51;1.10;99.90
51793;DHT22;37850;53.178;6.376;2023-03-02T07:42:17;1.10;99.90
51793;DHT22;37850;53.178;6.376;2023-03-02T07:44:43;1.10;99.90
51793;DHT22;37850;53.178;6.376;2023-03-02T07:47:08;1.20;99.90
51793;DHT22;37850;53.178;6.376;2023-03-02T07:49:34;1.10;99.90
51793;DHT22;37850;53.178;6.376;2023-03-02T07:52:04;1.30;99.90
51793;DHT22;37850;53.178;6.376;2023-03-02T07:54:30;1.20;99.90
51793;DHT22;37850;53.178;6.376;2023-03-02T07:56:56;1.10;99.90
51793;DHT22;37850;53.178;6.376;2023-03-02T07:59:22;1.10;99.90
51793;DHT22;37850;53.178;6.376;2023-03-02T08:01:48;1.10;99.90
51793;DHT22;37850;53.178;6.376;2023-03-02T08:04:14;1.10;99.90
51793;DHT22;37850;53.178;6.376;2023-03-02T08:06:42;1.10;99.90
51793;DHT22;37850;53.178;6.376;2023-03-02T08:09:08;1.80;99.90
51793;DHT22;37850;53.178;6.376;2023-03-02T08:11:34;1.10;99.90
51793;DHT22;37850;53.178;6.376;2023-03-02T08:14:01;1.10;99.90
51793;DHT22;37850;53.178;6.376;2023-03-02T08:16:30;1.10;99.90
51793;DHT22;37850;53.178;6.376;2023-03-02T08:18:56;1.10;99.90
51793;DHT22;37850;53.178;6.376;2023-03-02T08:21:24;1.10;99.90
51793;DHT22;37850;53.178;6.376;2023-03-02T08:23:50;1.30;99.90
51793;DHT22;37850;53.178;6.376;2023-03-02T08:26:17;1.90;99.90
51793;DHT22;37850;53.178;6.376;2023-03-02T08:28:43;1.20;99.90
51793;DHT22;37850;53.178;6.376;2023-03-02T08:31:09;1.20;99.90
51793;DHT22;37850;53.178;6.376;2023-03-02T08:33:35;1.20;99.90
51793;DHT22;37850;53.178;6.376;2023-03-02T08:36:09;1.20;99.90
51793;DHT22;37850;53.178;6.376;2023-03-02T08:38:35;1.20;99.90
51793;DHT22;37850;53.178;6.376;2023-03-02T08:41:06;1.30;99.90
51793;DHT22;37850;53.178;6.376;2023-03-02T08:43:33;1.20;99.90
51793;DHT22;37850;53.178;6.376;2023-03-02T08:45:59;1.20;99.90
51793;DHT22;37850;53.178;6.376;2023-03-02T08:48:26;1.20;99.90
51793;DHT22;37850;53.178;6.376;2023-03-02T08:51:02;1.30;99.90
51793;DHT22;37850;53.178;6.376;2023-03-02T08:53:30;1.20;99.90
51793;DHT22;37850;53.178;6.376;2023-03-02T08:55:57;1.30;99.90
51793;DHT22;37850;53.178;6.376;2023-03-02T08:58:23;1.40;99.90
51793;DHT22;37850;53.178;6.376;2023-03-02T09:00:49;1.40;99.90
51793;DHT22;37850;53.178;6.376;2023-03-02T09:03:15;1.40;99.90
51793;DHT22;37850;53.178;6.376;2023-03-02T09:05:42;1.50;99.90
51793;DHT22;37850;53.178;6.376;2023-03-02T09:08:07;1.50;99.90
51793;DHT22;37850;53.178;6.376;2023-03-02T09:10:34;1.50;99.90
51793;DHT22;37850;53.178;6.376;2023-03-02T09:12:59;1.60;99.90
51793;DHT22;37850;53.178;6.376;2023-03-02T09:15:25;1.60;99.90
51793;DHT22;37850;53.178;6.376;2023-03-02T09:17:51;1.70;99.90
51793;DHT22;37850;53.178;6.376;2023-03-02T09:20:17;1.70;99.90
51793;DHT22;37850;53.178;6.376;2023-03-02T09:22:43;1.70;99.90
51793;DHT22;37850;53.178;6.376;2023-03-02T09:25:13;1.70;99.90
51793;DHT22;37850;53.178;6.376;2023-03-02T09:27:40;1.70;99.90
51793;DHT22;37850;53.178;6.376;2023-03-02T09:30:06;2.20;99.90
51793;DHT22;37850;53.178;6.376;2023-03-02T09:32:32;1.80;99.90
51793;DHT22;37850;53.178;6.376;2023-03-02T09:34:58;1.80;99.90
51793;DHT22;37850;53.178;6.376;2023-03-02T09:37:24;1.90;99.90
51793;DHT22;37850;53.178;6.376;2023-03-02T09:39:50;1.90;99.90
51793;DHT22;37850;53.178;6.376;2023-03-02T09:48:02;1.90;99.90
51793;DHT22;37850;53.178;6.376;2023-03-02T09:50:31;1.90;99.90
51793;DHT22;37850;53.178;6.376;2023-03-02T09:53:07;2.00;99.90
51793;DHT22;37850;53.178;6.376;2023-03-02T09:55:37;2.00;99.90
51793;DHT22;37850;53.178;6.376;2023-03-02T09:58:13;2.00;99.90
51793;DHT22;37850;53.178;6.376;2023-03-02T10:00:41;1.90;99.90
51793;DHT22;37850;53.178;6.376;2023-03-02T10:03:21;2.50;99.90
51793;DHT22;37850;53.178;6.376;2023-03-02T10:05:49;2.00;99.90
51793;DHT22;37850;53.178;6.376;2023-03-02T10:08:22;2.00;99.90
51793;DHT22;37850;53.178;6.376;2023-03-02T10:11:21;2.10;99.90
51793;DHT22;37850;53.178;6.376;2023-03-02T10:14:06;2.00;99.90
51793;DHT22;37850;53.178;6.376;2023-03-02T10:19:43;2.10;99.90
51793;DHT22;37850;53.178;6.376;2023-03-02T10:22:13;2.10;99.90
51793;DHT22;37850;53.178;6.376;2023-03-02T10:24:55;2.10;99.90
51793;DHT22;37850;53.178;6.376;2023-03-02T10:30:03;2.20;99.90
51793;DHT22;37850;53.178;6.376;2023-03-02T10:32:36;2.20;99.90
51793;DHT22;37850;53.178;6.376;2023-03-02T10:35:19;2.30;99.90
51793;DHT22;37850;53.178;6.376;2023-03-02T10:38:08;2.30;99.90
51793;DHT22;37850;53.178;6.376;2023-03-02T10:40:44;2.40;99.90
51793;DHT22;37850;53.178;6.376;2023-03-02T10:43:29;2.40;99.90
51793;DHT22;37850;53.178;6.376;2023-03-02T10:46:00;2.50;99.90
51793;DHT22;37850;53.178;6.376;2023-03-02T10:48:26;2.60;99.90
51793;DHT22;37850;53.178;6.376;2023-03-02T10:50:54;2.60;99.90
51793;DHT22;37850;53.178;6.376;2023-03-02T10:53:20;2.60;99.90
51793;DHT22;37850;53.178;6.376;2023-03-02T10:55:48;2.70;99.90
51793;DHT22;37850;53.178;6.376;2023-03-02T10:58:25;2.80;99.90
51793;DHT22;37850;53.178;6.376;2023-03-02T11:01:02;2.80;99.90
51793;DHT22;37850;53.178;6.376;2023-03-02T11:03:29;2.90;99.90
51793;DHT22;37850;53.178;6.376;2023-03-02T11:05:56;2.90;99.90
51793;DHT22;37850;53.178;6.376;2023-03-02T11:08:25;2.90;99.90
51793;DHT22;37850;53.178;6.376;2023-03-02T11:13:23;3.00;99.90
51793;DHT22;37850;53.178;6.376;2023-03-02T11:15:57;3.00;99.90
51793;DHT22;37850;53.178;6.376;2023-03-02T11:18:40;3.10;99.90
51793;DHT22;37850;53.178;6.376;2023-03-02T11:21:10;3.20;99.90
51793;DHT22;37850;53.178;6.376;2023-03-02T11:26:40;3.40;99.90
51793;DHT22;37850;53.178;6.376;2023-03-02T11:31:50;3.60;99.90
51793;DHT22;37850;53.178;6.376;2023-03-02T11:34:45;3.80;99.90
51793;DHT22;37850;53.178;6.376;2023-03-02T11:37:47;3.60;99.90
51793;DHT22;37850;53.178;6.376;2023-03-02T11:40:37;3.70;99.90
51793;DHT22;37850;53.178;6.376;2023-03-02T11:43:06;3.80;99.90
51793;DHT22;37850;53.178;6.376;2023-03-02T11:45:40;4.50;99.90
51793;DHT22;37850;53.178;6.376;2023-03-02T11:48:35;4.00;99.90
51793;DHT22;37850;53.178;6.376;2023-03-02T11:51:12;4.10;99.90
51793;DHT22;37850;53.178;6.376;2023-03-02T11:54:01;4.10;99.90
51793;DHT22;37850;53.178;6.376;2023-03-02T11:56:34;4.20;99.90
51793;DHT22;37850;53.178;6.376;2023-03-02T11:59:14;4.20;99.90
51793;DHT22;37850;53.178;6.376;2023-03-02T12:01:44;4.30;99.90
51793;DHT22;37850;53.178;6.376;2023-03-02T12:04:32;4.30;99.90
51793;DHT22;37850;53.178;6.376;2023-03-02T12:07:14;4.40;99.90
51793;DHT22;37850;53.178;6.376;2023-03-02T12:09:40;4.90;99.90
51793;DHT22;37850;53.178;6.376;2023-03-02T12:14:51;4.70;99.90
51793;DHT22;37850;53.178;6.376;2023-03-02T12:22:32;4.90;99.90
51793;DHT22;37850;53.178;6.376;2023-03-02T12:27:46;5.10;99.90
51793;DHT22;37850;53.178;6.376;2023-03-02T12:32:57;5.20;99.90
51793;DHT22;37850;53.178;6.376;2023-03-02T12:35:23;5.30;99.90
51793;DHT22;37850;53.178;6.376;2023-03-02T12:37:56;5.20;99.90
51793;DHT22;37850;53.178;6.376;2023-03-02T12:43:36;5.40;99.90
51793;DHT22;37850;53.178;6.376;2023-03-02T12:46:24;5.40;99.90
51793;DHT22;37850;53.178;6.376;2023-03-02T12:51:48;5.40;99.90
51793;DHT22;37850;53.178;6.376;2023-03-02T12:54:16;5.90;99.90
51793;DHT22;37850;53.178;6.376;2023-03-02T12:56:43;5.30;99.90
51793;DHT22;37850;53.178;6.376;2023-03-02T12:59:23;5.80;99.90
51793;DHT22;37850;53.178;6.376;2023-03-02T13:01:49;5.30;99.90
51793;DHT22;37850;53.178;6.376;2023-03-02T13:04:23;5.30;99.90
51793;DHT22;37850;53.178;6.376;2023-03-02T13:06:50;5.30;99.90
51793;DHT22;37850;53.178;6.376;2023-03-02T13:09:17;5.30;99.90
51793;DHT22;37850;53.178;6.376;2023-03-02T13:11:46;5.30;99.90
51793;DHT22;37850;53.178;6.376;2023-03-02T13:14:24;5.30;99.90
51793;DHT22;37850;53.178;6.376;2023-03-02T13:17:01;5.30;99.90
51793;DHT22;37850;53.178;6.376;2023-03-02T13:19:30;5.20;99.90
51793;DHT22;37850;53.178;6.376;2023-03-02T13:21:57;5.20;99.90
51793;DHT22;37850;53.178;6.376;2023-03-02T13:24:43;5.20;99.90
51793;DHT22;37850;53.178;6.376;2023-03-02T13:27:19;5.20;99.90
51793;DHT22;37850;53.178;6.376;2023-03-02T13:29:46;5.30;99.90
51793;DHT22;37850;53.178;6.376;2023-03-02T13:32:21;5.20;99.90
51793;DHT22;37850;53.178;6.376;2023-03-02T13:34:55;5.60;99.90
51793;DHT22;37850;53.178;6.376;2023-03-02T13:37:34;5.20;99.90
51793;DHT22;37850;53.178;6.376;2023-03-02T13:40:05;5.20;99.90
51793;DHT22;37850;53.178;6.376;2023-03-02T13:42:39;5.30;99.90
51793;DHT22;37850;53.178;6.376;2023-03-02T13:45:22;5.30;99.90
51793;DHT22;37850;53.178;6.376;2023-03-02T13:47:48;5.20;99.90
51793;DHT22;37850;53.178;6.376;2023-03-02T13:50:21;5.20;99.90
51793;DHT22;37850;53.178;6.376;2023-03-02T13:52:47;5.20;99.90
51793;DHT22;37850;53.178;6.376;2023-03-02T13:55:15;5.80;99.90
51793;DHT22;37850;53.178;6.376;2023-03-02T13:57:42;5.30;99.90
51793;DHT22;37850;53.178;6.376;2023-03-02T14:02:43;5.30;99.90
51793;DHT22;37850;53.178;6.376;2023-03-02T14:05:20;5.40;99.90
51793;DHT22;37850;53.178;6.376;2023-03-02T14:07:46;5.40;99.90
51793;DHT22;37850;53.178;6.376;2023-03-02T14:10:14;5.40;99.90
51793;DHT22;37850;53.178;6.376;2023-03-02T14:12:47;5.40;99.90
51793;DHT22;37850;53.178;6.376;2023-03-02T14:15:16;5.40;99.90
51793;DHT22;37850;53.178;6.376;2023-03-02T14:17:42;5.40;99.90
51793;DHT22;37850;53.178;6.376;2023-03-02T14:20:13;5.40;99.90
51793;DHT22;37850;53.178;6.376;2023-03-02T14:22:40;5.40;99.90
51793;DHT22;37850;53.178;6.376;2023-03-02T14:25:06;5.40;99.90
51793;DHT22;37850;53.178;6.376;2023-03-02T14:27:32;5.50;99.90
51793;DHT22;37850;53.178;6.376;2023-03-02T14:29:58;5.50;99.90
51793;DHT22;37850;53.178;6.376;2023-03-02T14:32:25;5.50;99.90
51793;DHT22;37850;53.178;6.376;2023-03-02T14:34:51;5.60;99.90
51793;DHT22;37850;53.178;6.376;2023-03-02T14:37:20;5.60;99.90
51793;DHT22;37850;53.178;6.376;2023-03-02T14:39:51;5.50;99.90
51793;DHT22;37850;53.178;6.376;2023-03-02T14:42:18;5.60;99.90
51793;DHT22;37850;53.178;6.376;2023-03-02T14:44:46;5.50;99.90
51793;DHT22;37850;53.178;6.376;2023-03-02T14:47:13;5.60;99.90
51793;DHT22;37850;53.178;6.376;2023-03-02T14:49:41;5.70;99.90
51793;DHT22;37850;53.178;6.376;2023-03-02T14:52:30;5.60;99.90
51793;DHT22;37850;53.178;6.376;2023-03-02T14:55:00;5.60;99.90
51793;DHT22;37850;53.178;6.376;2023-03-02T14:57:28;5.60;99.90
51793;DHT22;37850;53.178;6.376;2023-03-02T14:59:55;5.60;99.90
51793;DHT22;37850;53.178;6.376;2023-03-02T15:02:24;5.60;99.90
51793;DHT22;37850;53.178;6.376;2023-03-02T15:04:50;5.60;99.90
51793;DHT22;37850;53.178;6.376;2023-03-02T15:07:20;5.60;99.90
51793;DHT22;37850;53.178;6.376;2023-03-02T15:09:46;5.60;99.90
51793;DHT22;37850;53.178;6.376;2023-03-02T15:12:12;5.60;99.90
51793;DHT22;37850;53.178;6.376;2023-03-02T15:14:38;5.50;99.90
51793;DHT22;37850;53.178;6.376;2023-03-02T15:17:04;5.60;99.90
51793;DHT22;37850;53.178;6.376;2023-03-02T15:19:30;5.50;99.90
51793;DHT22;37850;53.178;6.376;2023-03-02T15:21:56;5.50;99.90
51793;DHT22;37850;53.178;6.376;2023-03-02T15:24:22;5.40;99.90
51793;DHT22;37850;53.178;6.376;2023-03-02T15:26:52;5.40;99.90
51793;DHT22;37850;53.178;6.376;2023-03-02T15:29:18;5.40;99.90
51793;DHT22;37850;53.178;6.376;2023-03-02T15:31:44;5.30;99.90
51793;DHT22;37850;53.178;6.376;2023-03-02T15:34:11;5.30;99.90
51793;DHT22;37850;53.178;6.376;2023-03-02T15:36:37;5.80;99.90
51793;DHT22;37850;53.178;6.376;2023-03-02T15:39:03;5.30;99.90
51793;DHT22;37850;53.178;6.376;2023-03-02T15:41:29;5.20;99.90
51793;DHT22;37850;53.178;6.376;2023-03-02T15:43:55;5.20;99.90
51793;DHT22;37850;53.178;6.376;2023-03-02T15:46:22;5.20;99.90
51793;DHT22;37850;53.178;6.376;2023-03-02T15:48:48;5.10;99.90
51793;DHT22;37850;53.178;6.376;2023-03-02T15:51:16;5.10;99.90
51793;DHT22;37850;53.178;6.376;2023-03-02T15:53:42;5.00;99.90
51793;DHT22;37850;53.178;6.376;2023-03-02T15:56:13;5.00;99.90
51793;DHT22;37850;53.178;6.376;2023-03-02T15:58:47;5.00;99.90
51793;DHT22;37850;53.178;6.376;2023-03-02T16:01:14;4.90;99.90
51793;DHT22;37850;53.178;6.376;2023-03-02T16:03:41;4.90;99.90
51793;DHT22;37850;53.178;6.376;2023-03-02T16:06:07;5.00;99.90
51793;DHT22;37850;53.178;6.376;2023-03-02T16:08:34;4.90;99.90
51793;DHT22;37850;53.178;6.376;2023-03-02T16:11:05;4.90;99.90
51793;DHT22;37850;53.178;6.376;2023-03-02T16:13:34;4.90;99.90
51793;DHT22;37850;53.178;6.376;2023-03-02T16:16:04;4.80;99.90
51793;DHT22;37850;53.178;6.376;2023-03-02T16:18:30;4.90;99.90
51793;DHT22;37850;53.178;6.376;2023-03-02T16:20:56;4.90;99.90
51793;DHT22;37850;53.178;6.376;2023-03-02T16:23:22;4.80;99.90
51793;DHT22;37850;53.178;6.376;2023-03-02T16:25:48;4.80;99.90
51793;DHT22;37850;53.178;6.376;2023-03-02T16:28:16;4.80;99.90
51793;DHT22;37850;53.178;6.376;2023-03-02T16:30:42;4.90;99.90
51793;DHT22;37850;53.178;6.376;2023-03-02T16:33:14;4.80;99.90
51793;DHT22;37850;53.178;6.376;2023-03-02T16:35:40;4.80;99.90
51793;DHT22;37850;53.178;6.376;2023-03-02T16:38:06;4.70;99.90
51793;DHT22;37850;53.178;6.376;2023-03-02T16:40:33;4.70;99.90
51793;DHT22;37850;53.178;6.376;2023-03-02T16:42:59;4.80;99.90